logo
Rechercher aéroport 
image banner adimage banner adimage banner ad
image banner ad

FAAF - Andrews Field

Situé à Struisbaai, South Africa

ICAO - FAAF, IATA -

Données fournies par Airmate  

Information générale

Coordonnées: S34°45'47" E20°2'6"
Élévation : 29 feet MSL.
 
Voir autres Aéroports à Western Cape

Données opérationnelles

Special qualification required
Heure actuelle UTC:
Heure actuelle locale:
Météo à : - ( 0 km )
METAR: TJBQ 171650Z 35006KT 10SM VCTS SCT025 SCT040 30/24 A2995 RMK LTG DSNT E AND SE
Voir NOTAMs / SUP AIP / TFR affectant cet aéroport [VIEW]
Fréquences de communication: [VIEW]

Pistes:

Identifiant RWYQFULongueur (ft)Largeur (ft)SurfaceLDA (ft)
1080°328133ASPH
28260°328133ASPH

Coordonnées de l'aéroport

Adresse: Struisbaai South Africa

Vue satellite de FAAF